createdAt,value
2023-03-01T00:02:07.539Z,0.08
2023-03-01T00:04:33.926Z,0.18
2023-03-01T00:07:00.232Z,-0.01
2023-03-01T00:09:26.547Z,-0.08
2023-03-01T00:11:52.911Z,-0.10
2023-03-01T00:14:19.282Z,-0.02
2023-03-01T00:16:47.032Z,0.06
2023-03-01T00:19:16.668Z,0.24
2023-03-01T00:21:43.342Z,-0.08
2023-03-01T00:24:11.254Z,0.02
2023-03-01T00:26:37.645Z,-0.09
2023-03-01T00:29:04.667Z,-0.10
2023-03-01T00:31:32.809Z,-0.04
2023-03-01T00:34:02.397Z,-0.15
2023-03-01T00:36:35.506Z,-0.11
2023-03-01T00:39:02.731Z,0.05
2023-03-01T00:41:29.312Z,-0.25
2023-03-01T00:43:56.393Z,-0.16
2023-03-01T00:46:26.655Z,-0.02
2023-03-01T00:48:53.822Z,-0.11
2023-03-01T00:51:24.165Z,0.01
2023-03-01T00:53:55.536Z,-0.07
2023-03-01T00:56:22.303Z,-0.50
2023-03-01T00:58:48.633Z,-0.50
2023-03-01T01:01:18.872Z,-0.25
2023-03-01T01:03:51.313Z,-0.25
2023-03-01T01:06:23.557Z,-0.26
2023-03-01T01:08:50.971Z,-0.18
2023-03-01T01:11:18.031Z,-0.52
2023-03-01T01:13:46.740Z,-0.42
2023-03-01T01:16:13.968Z,-0.54
2023-03-01T01:18:41.368Z,-0.63
2023-03-01T01:21:11.980Z,-0.53
2023-03-01T01:23:39.415Z,-0.51
2023-03-01T01:26:12.896Z,-0.45
2023-03-01T01:28:39.669Z,-0.41
2023-03-01T01:31:06.642Z,-0.47
2023-03-01T01:33:34.163Z,-0.77
2023-03-01T01:36:00.694Z,-0.64
2023-03-01T01:38:27.128Z,-0.41
2023-03-01T01:40:53.585Z,-0.57
2023-03-01T01:43:25.870Z,-0.33
2023-03-01T01:45:57.988Z,-0.37
2023-03-01T01:48:41.030Z,-0.25
2023-03-01T01:51:16.394Z,-0.35
2023-03-01T01:53:46.745Z,-0.50
2023-03-01T01:56:16.131Z,-0.66
2023-03-01T01:58:43.585Z,-0.58
2023-03-01T02:01:10.453Z,-1.02
2023-03-01T02:03:42.979Z,-0.74
2023-03-01T02:06:12.134Z,-0.69
2023-03-01T02:08:41.325Z,-1.00
2023-03-01T02:11:09.620Z,-1.00
2023-03-01T02:13:36.040Z,-0.91
2023-03-01T02:16:10.226Z,-0.82
2023-03-01T02:18:37.914Z,-0.79
2023-03-01T02:21:18.349Z,-0.74
2023-03-01T02:23:44.698Z,-0.87
2023-03-01T02:26:30.417Z,-0.73
2023-03-01T02:28:59.530Z,-0.95
2023-03-01T02:31:45.785Z,-0.86
2023-03-01T02:34:20.401Z,-0.93
2023-03-01T02:36:50.643Z,-0.97
2023-03-01T02:39:21.578Z,-0.90
2023-03-01T02:41:52.872Z,-0.98
2023-03-01T02:44:19.674Z,-0.99
2023-03-01T02:46:49.860Z,-0.77
2023-03-01T02:49:37.412Z,-0.72
2023-03-01T02:52:34.015Z,-0.69
2023-03-01T02:55:13.707Z,-0.89
2023-03-01T02:57:43.728Z,-0.80
2023-03-01T03:00:19.952Z,-0.60
2023-03-01T03:02:48.155Z,-0.73
2023-03-01T03:05:25.291Z,-0.57
2023-03-01T03:07:55.318Z,-0.89
2023-03-01T03:10:26.003Z,-0.78
2023-03-01T03:13:20.054Z,-0.98
2023-03-01T03:15:46.412Z,-0.71
2023-03-01T03:18:15.752Z,-0.93
2023-03-01T03:20:44.067Z,-0.94
2023-03-01T03:23:10.551Z,-1.25
2023-03-01T03:25:38.607Z,-1.16
2023-03-01T03:28:10.412Z,-1.13
2023-03-01T03:30:39.857Z,-1.10
2023-03-01T03:33:06.946Z,-1.13
2023-03-01T03:35:38.940Z,-1.23
2023-03-01T03:38:10.093Z,-1.16
2023-03-01T03:40:38.251Z,-1.14
2023-03-01T03:43:06.374Z,-1.26
2023-03-01T03:45:34.325Z,-1.30
2023-03-01T03:48:02.099Z,-0.95
2023-03-01T03:50:28.804Z,-0.90
2023-03-01T03:52:55.172Z,-0.93
2023-03-01T03:55:21.564Z,-1.14
2023-03-01T03:57:52.222Z,-1.28
2023-03-01T04:00:20.803Z,-1.12
2023-03-01T04:02:48.767Z,-0.96
2023-03-01T04:05:17.813Z,-0.89
2023-03-01T04:07:44.956Z,-1.06
2023-03-01T04:10:17.249Z,-1.33
2023-03-01T04:12:44.110Z,-1.12
2023-03-01T04:15:13.970Z,-1.35
2023-03-01T04:17:45.751Z,-1.34
2023-03-01T04:20:25.554Z,-1.36
2023-03-01T04:22:58.172Z,-1.34
2023-03-01T04:25:25.402Z,-1.42
2023-03-01T04:27:52.553Z,-1.33
2023-03-01T04:30:18.925Z,-1.17
2023-03-01T04:32:45.305Z,-1.21
2023-03-01T04:35:11.610Z,-1.01
2023-03-01T04:37:39.392Z,-1.18
2023-03-01T04:40:17.207Z,-1.30
2023-03-01T04:42:44.004Z,-1.18
2023-03-01T04:45:13.926Z,-1.28
2023-03-01T04:47:47.927Z,-1.29
2023-03-01T04:50:18.179Z,-1.31
2023-03-01T04:52:45.176Z,-1.30
2023-03-01T04:55:12.048Z,-1.20
2023-03-01T04:57:38.352Z,-1.13
2023-03-01T05:00:21.384Z,-1.01
2023-03-01T05:02:49.914Z,-1.27
2023-03-01T05:05:16.535Z,-1.08
2023-03-01T05:07:42.848Z,-1.12
2023-03-01T05:10:10.156Z,-1.08
2023-03-01T05:12:38.203Z,-1.46
2023-03-01T05:15:07.866Z,-1.21
2023-03-01T05:17:35.138Z,-1.42
2023-03-01T05:20:01.917Z,-1.40
2023-03-01T05:22:28.239Z,-1.53
2023-03-01T05:24:54.948Z,-1.40
2023-03-01T05:27:23.030Z,-1.52
2023-03-01T05:29:49.365Z,-1.46
2023-03-01T05:32:16.579Z,-1.57
2023-03-01T05:34:43.024Z,-1.45
2023-03-01T05:37:09.839Z,-1.50
2023-03-01T05:39:37.212Z,-1.45
2023-03-01T05:42:03.643Z,-1.14
2023-03-01T05:44:30.008Z,-1.10
2023-03-01T05:46:56.458Z,-1.44
2023-03-01T05:49:24.839Z,-1.66
2023-03-01T05:51:53.244Z,-1.35
2023-03-01T05:54:21.159Z,-1.08
2023-03-01T05:56:47.823Z,-1.63
2023-03-01T05:59:14.782Z,-1.73
2023-03-01T06:01:41.596Z,-1.74
2023-03-01T06:04:07.925Z,-1.63
2023-03-01T06:06:38.208Z,-1.69
2023-03-01T06:09:05.946Z,-1.45
2023-03-01T06:11:35.036Z,-1.33
2023-03-01T06:14:01.428Z,-1.37
2023-03-01T06:16:27.841Z,-1.43
2023-03-01T06:18:54.261Z,-1.51
2023-03-01T06:21:20.537Z,-1.48
2023-03-01T06:23:46.837Z,-1.47
2023-03-01T06:26:13.176Z,-1.38
2023-03-01T06:28:39.488Z,-1.34
2023-03-01T06:31:09.338Z,-1.14
2023-03-01T06:33:36.886Z,-1.18
2023-03-01T06:36:03.402Z,-1.13
2023-03-01T06:38:29.718Z,-1.15
2023-03-01T06:40:57.500Z,-1.26
2023-03-01T06:43:24.684Z,-1.19
2023-03-01T06:45:51.348Z,-1.19
2023-03-01T06:48:18.227Z,-1.12
2023-03-01T06:50:44.702Z,-1.27
2023-03-01T06:53:11.491Z,-1.15
2023-03-01T06:55:37.830Z,-1.06
2023-03-01T06:58:04.413Z,-1.23
2023-03-01T07:00:31.241Z,-1.01
2023-03-01T07:03:02.686Z,-0.95
2023-03-01T07:05:29.616Z,-0.85
2023-03-01T07:07:57.129Z,-0.92
2023-03-01T07:10:23.919Z,-0.96
2023-03-01T07:12:50.249Z,-0.88
2023-03-01T07:15:16.791Z,-0.82
2023-03-01T07:17:45.308Z,-0.83
2023-03-01T07:20:12.320Z,-0.77
2023-03-01T07:22:41.725Z,-0.73
2023-03-01T07:25:08.474Z,-0.73
2023-03-01T07:27:34.884Z,-0.62
2023-03-01T07:30:01.483Z,-0.67
2023-03-01T07:32:27.840Z,-0.52
2023-03-01T07:34:54.161Z,-0.39
2023-03-01T07:37:20.600Z,-0.28
2023-03-01T07:39:46.883Z,-0.33
2023-03-01T07:42:13.191Z,-0.13
2023-03-01T07:44:39.516Z,-0.09
2023-03-01T07:47:05.974Z,-0.20
2023-03-01T07:49:32.289Z,-0.11
2023-03-01T07:51:58.882Z,-0.01
2023-03-01T07:54:25.344Z,0.18
2023-03-01T07:56:51.660Z,0.22
2023-03-01T07:59:17.992Z,0.36
2023-03-01T08:01:44.394Z,0.33
2023-03-01T08:04:11.364Z,0.35
2023-03-01T08:06:38.139Z,0.40
2023-03-01T08:09:04.537Z,0.57
2023-03-01T08:11:31.038Z,0.54
2023-03-01T08:13:58.290Z,0.72
2023-03-01T08:16:24.910Z,0.71
2023-03-01T08:18:51.244Z,0.72
2023-03-01T08:21:18.600Z,0.76
2023-03-01T08:23:45.515Z,0.72
2023-03-01T08:26:19.277Z,0.61
2023-03-01T08:28:46.344Z,0.89
2023-03-01T08:31:36.438Z,0.87
2023-03-01T08:34:06.033Z,0.90
2023-03-01T08:36:35.883Z,0.99
2023-03-01T08:39:02.305Z,1.03
2023-03-01T08:41:29.054Z,1.06
2023-03-01T08:43:59.440Z,1.25
2023-03-01T08:46:30.709Z,1.20
2023-03-01T08:48:57.575Z,1.25
2023-03-01T08:51:25.882Z,1.27
2023-03-01T08:53:52.757Z,1.36
2023-03-01T08:56:20.265Z,1.29
2023-03-01T08:58:48.125Z,1.50
2023-03-01T09:01:19.834Z,1.60
2023-03-01T09:03:47.246Z,1.76
2023-03-01T09:06:14.960Z,1.79
2023-03-01T09:08:45.639Z,2.01
2023-03-01T09:11:16.161Z,1.89
2023-03-01T09:13:44.336Z,1.96
2023-03-01T09:16:13.080Z,2.04
2023-03-01T09:18:39.655Z,1.92
2023-03-01T09:21:11.171Z,2.01
2023-03-01T09:23:40.455Z,2.20
2023-03-01T09:26:12.543Z,2.29
2023-03-01T09:28:39.849Z,2.29
2023-03-01T09:31:06.303Z,2.56
2023-03-01T09:33:34.354Z,2.59
2023-03-01T09:36:06.802Z,2.71
2023-03-01T09:38:33.456Z,2.84
2023-03-01T09:41:01.347Z,3.06
2023-03-01T09:46:17.479Z,3.24
2023-03-01T09:48:56.270Z,3.34
2023-03-01T09:51:30.495Z,3.42
2023-03-01T09:53:59.465Z,3.61
2023-03-01T09:56:34.688Z,3.70
2023-03-01T09:59:29.528Z,3.86
2023-03-01T10:02:23.792Z,4.18
2023-03-01T10:04:57.144Z,4.41
2023-03-01T10:07:38.712Z,4.54
2023-03-01T10:10:27.101Z,4.77
2023-03-01T10:12:53.777Z,4.95
2023-03-01T10:15:36.637Z,5.22
2023-03-01T10:18:11.595Z,5.40
2023-03-01T10:21:00.200Z,5.65
2023-03-01T10:23:29.242Z,5.93
2023-03-01T10:26:05.291Z,5.47
2023-03-01T10:28:46.473Z,5.95
2023-03-01T10:31:15.965Z,6.07
2023-03-01T10:33:42.803Z,5.94
2023-03-01T10:36:09.559Z,6.12
2023-03-01T10:39:37.310Z,6.36
2023-03-01T10:42:06.843Z,6.65
2023-03-01T10:44:40.744Z,6.51
2023-03-01T10:47:15.492Z,6.90
2023-03-01T10:50:00.003Z,7.13
2023-03-01T10:52:29.713Z,7.38
2023-03-01T10:54:59.074Z,7.26
2023-03-01T10:57:37.045Z,7.73
2023-03-01T11:00:19.838Z,8.00
2023-03-01T11:03:02.064Z,8.06
2023-03-01T11:05:31.548Z,8.19
2023-03-01T11:07:59.899Z,8.10
2023-03-01T11:10:29.226Z,8.67
2023-03-01T11:13:08.980Z,8.74
2023-03-01T11:15:35.852Z,9.09
2023-03-01T11:18:13.872Z,9.27
2023-03-01T11:20:42.232Z,9.23
2023-03-01T11:23:14.186Z,9.17
2023-03-01T11:25:43.605Z,9.59
2023-03-01T11:28:16.579Z,9.76
2023-03-01T11:31:06.898Z,9.23
2023-03-01T11:33:45.970Z,9.88
2023-03-01T11:36:39.450Z,9.27
2023-03-01T11:39:28.787Z,8.59
2023-03-01T11:42:18.555Z,9.17
2023-03-01T11:44:53.139Z,9.02
2023-03-01T11:47:44.874Z,9.41
2023-03-01T11:50:17.255Z,9.51
2023-03-01T11:53:09.685Z,9.99
2023-03-01T11:56:16.209Z,10.01
2023-03-01T11:58:59.653Z,9.71
2023-03-01T12:01:34.225Z,10.02
2023-03-01T12:04:10.953Z,10.02
2023-03-01T12:06:48.991Z,10.25
2023-03-01T12:09:26.841Z,10.57
2023-03-01T12:12:11.951Z,10.68
2023-03-01T12:15:08.265Z,10.97
2023-03-01T12:17:40.499Z,10.99
2023-03-01T12:20:25.038Z,11.06
2023-03-01T12:23:30.347Z,11.00
2023-03-01T12:26:03.653Z,10.90
2023-03-01T12:28:45.958Z,11.09
2023-03-01T12:31:45.379Z,11.13
2023-03-01T12:34:14.708Z,11.71
2023-03-01T12:37:13.423Z,12.10
2023-03-01T12:39:51.135Z,12.13
2023-03-01T12:43:01.120Z,12.59
2023-03-01T12:45:46.771Z,13.12
2023-03-01T12:48:18.948Z,13.15
2023-03-01T12:50:52.536Z,13.61
2023-03-01T12:53:26.405Z,13.07
2023-03-01T12:55:57.006Z,13.28
2023-03-01T12:58:49.610Z,13.66
2023-03-01T13:01:17.245Z,13.95
2023-03-01T13:04:19.072Z,14.47
2023-03-01T13:06:51.957Z,14.52
2023-03-01T13:09:28.428Z,14.81
2023-03-01T13:11:54.757Z,14.46
2023-03-01T13:14:21.003Z,14.90
2023-03-01T13:16:50.081Z,15.05
2023-03-01T13:19:25.087Z,14.46
2023-03-01T13:21:55.517Z,14.44
2023-03-01T13:24:27.751Z,14.30
2023-03-01T13:27:06.383Z,13.61
2023-03-01T13:29:47.141Z,11.91
2023-03-01T13:32:34.366Z,10.29
2023-03-01T13:35:20.573Z,9.05
2023-03-01T13:37:47.841Z,9.06
2023-03-01T13:40:17.705Z,8.72
2023-03-01T13:42:59.360Z,8.40
2023-03-01T13:45:43.765Z,7.90
2023-03-01T13:48:17.594Z,7.73
2023-03-01T13:50:52.393Z,7.65
2023-03-01T13:53:21.020Z,7.16
2023-03-01T13:55:51.775Z,7.08
2023-03-01T13:58:32.318Z,7.02
2023-03-01T14:01:04.982Z,6.94
2023-03-01T14:03:33.378Z,6.91
2023-03-01T14:06:15.295Z,6.94
2023-03-01T14:08:45.463Z,6.75
2023-03-01T14:11:30.542Z,6.73
2023-03-01T14:14:17.065Z,6.95
2023-03-01T14:16:46.795Z,6.99
2023-03-01T14:19:32.564Z,6.89
2023-03-01T14:22:13.671Z,6.78
2023-03-01T14:24:47.963Z,6.58
2023-03-01T14:27:14.775Z,6.65
2023-03-01T14:29:41.454Z,6.71
2023-03-01T14:32:22.377Z,6.83
2023-03-01T14:34:51.132Z,6.77
2023-03-01T14:37:23.743Z,6.51
2023-03-01T14:39:50.480Z,6.75
2023-03-01T14:42:18.058Z,6.74
2023-03-01T14:44:47.169Z,6.56
2023-03-01T14:47:20.666Z,6.79
2023-03-01T14:49:50.486Z,6.67
2023-03-01T14:52:23.945Z,6.47
2023-03-01T14:54:54.056Z,6.57
2023-03-01T14:57:25.834Z,6.43
2023-03-01T14:59:55.433Z,6.49
2023-03-01T15:02:24.830Z,6.54
2023-03-01T15:04:57.491Z,6.49
2023-03-01T15:07:28.763Z,6.57
2023-03-01T15:09:55.080Z,6.57
2023-03-01T15:12:40.078Z,6.55
2023-03-01T15:15:43.674Z,6.22
2023-03-01T15:18:22.470Z,6.17
2023-03-01T15:20:50.606Z,6.28
2023-03-01T15:23:25.149Z,6.31
2023-03-01T15:25:59.237Z,6.14
2023-03-01T15:28:31.317Z,6.27
2023-03-01T15:31:02.828Z,6.21
2023-03-01T15:33:33.186Z,6.19
2023-03-01T15:36:02.323Z,6.21
2023-03-01T15:38:32.912Z,6.25
2023-03-01T15:41:05.212Z,6.15
2023-03-01T15:43:47.308Z,6.25
2023-03-01T15:46:25.891Z,6.04
2023-03-01T15:48:57.299Z,6.11
2023-03-01T15:51:30.586Z,5.99
2023-03-01T15:53:59.352Z,6.06
2023-03-01T15:56:25.789Z,5.94
2023-03-01T15:58:52.099Z,5.97
2023-03-01T16:01:18.884Z,6.01
2023-03-01T16:03:46.180Z,6.03
2023-03-01T16:06:13.234Z,5.77
2023-03-01T16:08:39.567Z,5.89
2023-03-01T16:11:14.797Z,5.90
2023-03-01T16:13:41.304Z,5.95
2023-03-01T16:16:10.258Z,5.98
2023-03-01T16:18:36.623Z,6.00
2023-03-01T16:21:02.978Z,6.02
2023-03-01T16:23:29.290Z,6.00
2023-03-01T16:26:00.512Z,5.93
2023-03-01T16:28:28.661Z,5.91
2023-03-01T16:30:55.719Z,5.83
2023-03-01T16:33:33.516Z,5.72
2023-03-01T16:36:10.951Z,5.73
2023-03-01T16:38:38.139Z,5.77
2023-03-01T16:41:04.520Z,5.75
2023-03-01T16:43:31.626Z,5.71
2023-03-01T16:45:59.673Z,5.67
2023-03-01T16:48:26.847Z,5.57
2023-03-01T16:50:57.804Z,5.40
2023-03-01T16:53:24.142Z,5.44
2023-03-01T16:55:57.899Z,5.56
2023-03-01T16:58:25.531Z,5.52
2023-03-01T17:00:54.174Z,5.30
2023-03-01T17:03:22.471Z,5.41
2023-03-01T17:05:49.719Z,5.42
2023-03-01T17:08:16.904Z,5.33
2023-03-01T17:10:43.490Z,5.32
2023-03-01T17:13:11.057Z,5.36
2023-03-01T17:15:41.447Z,5.43
2023-03-01T17:18:09.439Z,5.31
2023-03-01T17:20:36.675Z,5.25
2023-03-01T17:23:03.772Z,5.21
2023-03-01T17:25:30.250Z,5.09
2023-03-01T17:27:56.646Z,5.02
2023-03-01T17:30:23.114Z,5.04
2023-03-01T17:32:49.641Z,4.94
2023-03-01T17:35:16.070Z,5.05
2023-03-01T17:37:46.220Z,5.12
2023-03-01T17:40:13.165Z,4.98
2023-03-01T17:42:39.562Z,5.03
2023-03-01T17:45:06.720Z,4.98
2023-03-01T17:47:33.012Z,4.93
2023-03-01T17:50:00.243Z,5.00
2023-03-01T17:52:26.561Z,4.83
2023-03-01T17:54:52.890Z,4.89
2023-03-01T17:57:19.201Z,4.88
2023-03-01T17:59:45.550Z,4.81
2023-03-01T18:02:12.999Z,4.69
2023-03-01T18:04:39.467Z,4.81
2023-03-01T18:07:05.790Z,4.71
2023-03-01T18:09:32.112Z,4.70
2023-03-01T18:11:58.695Z,4.64
2023-03-01T18:14:25.798Z,4.64
2023-03-01T18:16:52.149Z,4.48
2023-03-01T18:19:18.706Z,4.60
2023-03-01T18:21:44.998Z,4.51
2023-03-01T18:24:11.318Z,4.55
2023-03-01T18:26:39.256Z,4.53
2023-03-01T18:29:07.587Z,4.63
2023-03-01T18:31:33.968Z,4.61
2023-03-01T18:34:03.275Z,4.73
2023-03-01T18:36:32.964Z,4.41
2023-03-01T18:39:01.227Z,4.47
2023-03-01T18:41:28.509Z,4.47
2023-03-01T18:43:58.407Z,4.49
2023-03-01T18:46:25.793Z,4.41
2023-03-01T18:48:53.377Z,4.18
2023-03-01T18:51:22.859Z,4.33
2023-03-01T18:53:49.339Z,4.31
2023-03-01T18:56:15.734Z,4.32
2023-03-01T18:58:42.974Z,4.32
2023-03-01T19:01:15.904Z,4.41
2023-03-01T19:03:57.735Z,3.99
2023-03-01T19:06:31.283Z,4.25
2023-03-01T19:08:57.783Z,4.28
2023-03-01T19:11:26.879Z,4.25
2023-03-01T19:13:54.270Z,4.17
2023-03-01T19:17:05.108Z,4.10
2023-03-01T19:19:32.686Z,4.18
2023-03-01T19:22:05.633Z,4.18
2023-03-01T19:24:32.750Z,3.94
2023-03-01T19:26:59.061Z,3.97
2023-03-01T19:29:26.118Z,3.94
2023-03-01T19:31:52.484Z,3.88
2023-03-01T19:34:18.819Z,4.00
2023-03-01T19:36:45.185Z,4.04
2023-03-01T19:39:13.354Z,3.92
2023-03-01T19:41:40.100Z,3.86
2023-03-01T19:44:08.495Z,3.92
2023-03-01T19:46:35.483Z,3.90
2023-03-01T19:49:03.337Z,3.94
2023-03-01T19:51:33.262Z,3.88
2023-03-01T19:53:59.980Z,3.90
2023-03-01T19:56:26.317Z,3.75
2023-03-01T19:59:00.056Z,3.68
2023-03-01T20:01:32.702Z,3.76
2023-03-01T20:03:59.014Z,3.76
2023-03-01T20:06:25.643Z,3.77
2023-03-01T20:08:52.454Z,3.75
2023-03-01T20:11:19.780Z,3.60
2023-03-01T20:13:46.169Z,3.74
2023-03-01T20:16:16.526Z,3.64
2023-03-01T20:18:42.951Z,3.66
2023-03-01T20:21:21.477Z,3.61
2023-03-01T20:23:49.791Z,3.46
2023-03-01T20:26:19.380Z,3.54
2023-03-01T20:28:47.444Z,3.63
2023-03-01T20:31:15.761Z,3.41
2023-03-01T20:33:42.140Z,3.21
2023-03-01T20:36:10.057Z,3.27
2023-03-01T20:38:37.420Z,3.46
2023-03-01T20:41:06.348Z,3.45
2023-03-01T20:43:33.456Z,3.35
2023-03-01T20:46:03.981Z,3.41
2023-03-01T20:48:30.301Z,3.31
2023-03-01T20:50:59.677Z,3.24
2023-03-01T20:53:26.000Z,3.25
2023-03-01T20:55:52.323Z,3.33
2023-03-01T20:58:18.603Z,3.24
2023-03-01T21:00:45.005Z,3.33
2023-03-01T21:03:11.337Z,3.26
2023-03-01T21:05:37.695Z,3.20
2023-03-01T21:08:04.172Z,3.24
2023-03-01T21:10:32.264Z,3.14
2023-03-01T21:12:58.669Z,3.12
2023-03-01T21:15:29.311Z,3.16
2023-03-01T21:17:56.013Z,3.19
2023-03-01T21:20:22.628Z,3.04
2023-03-01T21:22:49.019Z,3.09
2023-03-01T21:25:15.518Z,3.15
2023-03-01T21:27:41.885Z,3.13
2023-03-01T21:30:08.704Z,3.16
2023-03-01T21:32:35.090Z,3.04
2023-03-01T21:35:01.463Z,3.04
2023-03-01T21:37:27.834Z,3.02
2023-03-01T21:39:54.148Z,2.98
2023-03-01T21:42:20.452Z,2.96
2023-03-01T21:44:46.818Z,2.84
2023-03-01T21:47:13.223Z,2.77
2023-03-01T21:49:39.524Z,2.84
2023-03-01T21:52:05.861Z,2.97
2023-03-01T21:54:34.067Z,2.71
2023-03-01T21:57:00.523Z,2.86
2023-03-01T21:59:28.179Z,2.35
2023-03-01T22:01:54.511Z,2.35
2023-03-01T22:04:22.457Z,2.11
2023-03-01T22:06:54.185Z,2.28
2023-03-01T22:09:22.886Z,2.58
2023-03-01T22:11:53.849Z,2.44
2023-03-01T22:14:21.502Z,2.56
2023-03-01T22:16:51.082Z,2.47
2023-03-01T22:19:17.831Z,2.52
2023-03-01T22:21:49.005Z,2.42
2023-03-01T22:24:16.181Z,2.15
2023-03-01T22:26:44.651Z,2.09
2023-03-01T22:29:14.474Z,2.31
2023-03-01T22:31:41.340Z,2.39
2023-03-01T22:34:08.870Z,2.33
2023-03-01T22:36:35.553Z,2.07
2023-03-01T22:39:02.558Z,2.06
2023-03-01T22:41:31.254Z,2.04
2023-03-01T22:43:57.851Z,2.12
2023-03-01T22:46:25.460Z,2.10
2023-03-01T22:48:52.267Z,1.99
2023-03-01T22:51:21.508Z,2.20
2023-03-01T22:53:48.124Z,2.35
2023-03-01T22:56:28.984Z,2.42
2023-03-01T22:58:57.059Z,2.44
2023-03-01T23:01:25.025Z,2.38
2023-03-01T23:03:53.468Z,2.66
2023-03-01T23:06:21.259Z,2.45
2023-03-01T23:08:53.583Z,2.20
2023-03-01T23:11:21.230Z,2.20
2023-03-01T23:13:48.399Z,2.26
2023-03-01T23:16:15.984Z,2.30
2023-03-01T23:18:43.343Z,2.26
2023-03-01T23:21:15.602Z,2.08
2023-03-01T23:23:42.897Z,2.21
2023-03-01T23:26:09.678Z,2.25
2023-03-01T23:28:40.202Z,2.27
2023-03-01T23:31:09.854Z,2.19
2023-03-01T23:33:38.915Z,2.32
2023-03-01T23:36:19.989Z,2.26
2023-03-01T23:38:47.444Z,2.20
2023-03-01T23:41:16.107Z,2.23
2023-03-01T23:43:47.079Z,1.89
2023-03-01T23:46:14.944Z,1.99
2023-03-01T23:48:42.750Z,2.09
2023-03-01T23:51:09.633Z,2.11
2023-03-01T23:53:39.128Z,2.14
2023-03-01T23:56:06.364Z,2.14
2023-03-01T23:58:32.726Z,2.12
